Time;durP1;ratioP1;P1;durP2;ratioP2;P2;SDS_P1;SDS_P2;PMS_P1;PMS_P2;Temp;Humidity;BMP_temperature;BMP_pressure;BME280_temperature;BME280_humidity;BME280_pressure;Samples;Min_cycle;Max_cycle;Signal;HPM_P1;HPM_P2
2022/05/23 00:01:12;;;;;;;;;;;14.50;99.90;;;;;;5016951;28;19925;-75
2022/05/23 00:03:37;;;;;;;;;;;14.50;99.90;;;;;;5032746;28;19932;-75
2022/05/23 00:06:03;;;;;;;;;;;14.40;99.90;;;;;;5033661;28;19932;-74
2022/05/23 00:08:28;;;;;;;;;;;14.40;99.90;;;;;;5032553;28;20331;-74
2022/05/23 00:10:54;;;;;;;;;;;14.40;99.90;;;;;;5033029;28;20388;-74
2022/05/23 00:13:19;;;;;;;;;;;14.40;99.90;;;;;;5033005;28;19982;-74
2022/05/23 00:15:45;;;;;;;;;;;14.40;99.90;;;;;;5032024;28;19963;-74
2022/05/23 00:18:10;;;;;;;;;;;14.50;99.90;;;;;;5030564;28;19925;-74
2022/05/23 00:20:36;;;;;;;;;;;14.40;99.90;;;;;;5033190;28;19932;-74
2022/05/23 00:23:01;;;;;;;;;;;14.40;99.90;;;;;;5032392;28;19975;-74
2022/05/23 00:25:27;;;;;;;;;;;14.30;99.90;;;;;;5033745;28;19980;-74
2022/05/23 00:27:53;;;;;;;;;;;14.40;99.90;;;;;;5031374;28;19961;-74
2022/05/23 00:30:20;;;;;;;;;;;14.40;99.90;;;;;;5033693;28;19964;-74
2022/05/23 00:35:30;;;;;;;;;;;14.40;99.90;;;;;;5011785;28;19925;-74
2022/05/23 00:37:56;;;;;;;;;;;14.40;99.90;;;;;;5012665;28;20028;-74
2022/05/23 00:40:26;;;;;;;;;;;14.30;99.90;;;;;;5013714;28;19925;-74
2022/05/23 00:46:00;;;;;;;;;;;14.30;99.90;;;;;;4991140;28;20377;-74
2022/05/23 00:48:27;;;;;;;;;;;14.30;99.90;;;;;;5011351;28;19929;-74
2022/05/23 00:50:54;;;;;;;;;;;14.30;99.90;;;;;;5012510;28;20285;-74
2022/05/23 00:53:24;;;;;;;;;;;14.30;99.90;;;;;;5031520;28;19926;-74
2022/05/23 00:55:50;;;;;;;;;;;14.30;99.90;;;;;;5031536;28;20372;-74
2022/05/23 00:58:18;;;;;;;;;;;14.30;99.90;;;;;;5031701;28;19929;-75
2022/05/23 01:00:44;;;;;;;;;;;14.30;99.90;;;;;;5033379;28;19971;-75
2022/05/23 01:03:12;;;;;;;;;;;14.30;99.90;;;;;;5030079;28;19933;-75
2022/05/23 01:05:39;;;;;;;;;;;14.30;99.90;;;;;;5032935;28;20407;-75
2022/05/23 01:08:05;;;;;;;;;;;14.30;99.90;;;;;;5029465;28;20012;-75
2022/05/23 01:10:31;;;;;;;;;;;14.40;99.90;;;;;;5032011;28;19925;-75
2022/05/23 01:12:57;;;;;;;;;;;14.40;99.90;;;;;;5031631;28;19925;-74
2022/05/23 01:15:24;;;;;;;;;;;14.40;99.90;;;;;;5032785;28;20036;-75
2022/05/23 01:17:50;;;;;;;;;;;14.40;99.90;;;;;;5031548;28;20352;-74
2022/05/23 01:20:16;;;;;;;;;;;14.50;99.90;;;;;;5032676;28;20376;-75
2022/05/23 01:23:01;;;;;;;;;;;14.40;99.90;;;;;;5015100;28;20008;-75
2022/05/23 01:25:31;;;;;;;;;;;14.50;99.90;;;;;;4981430;28;20008;-75
2022/05/23 01:27:57;;;;;;;;;;;14.50;99.90;;;;;;5011686;28;19932;-75
2022/05/23 01:30:23;;;;;;;;;;;14.50;99.90;;;;;;5012901;28;19925;-75
2022/05/23 01:32:49;;;;;;;;;;;14.50;99.90;;;;;;5027061;28;20487;-75
2022/05/23 01:35:14;;;;;;;;;;;14.50;99.90;;;;;;5012654;28;20025;-75
2022/05/23 01:37:40;;;;;;;;;;;14.50;99.90;;;;;;5013160;28;19948;-75
2022/05/23 01:40:07;;;;;;;;;;;14.50;99.90;;;;;;5011240;28;19972;-75
2022/05/23 01:42:33;;;;;;;;;;;14.50;99.90;;;;;;5011245;28;20037;-76
2022/05/23 01:44:58;;;;;;;;;;;14.50;99.90;;;;;;5027502;28;19952;-75
2022/05/23 01:47:24;;;;;;;;;;;14.60;99.90;;;;;;5013886;28;20381;-75
2022/05/23 01:49:49;;;;;;;;;;;14.50;99.90;;;;;;5011335;28;20489;-75
2022/05/23 01:52:15;;;;;;;;;;;14.50;99.90;;;;;;5010508;28;19964;-75
2022/05/23 01:54:41;;;;;;;;;;;14.40;99.90;;;;;;5011248;28;19936;-75
2022/05/23 01:57:07;;;;;;;;;;;14.50;99.90;;;;;;5023288;28;19932;-75
2022/05/23 02:02:17;;;;;;;;;;;14.50;99.90;;;;;;5030704;28;19933;-75
2022/05/23 02:04:43;;;;;;;;;;;14.40;99.90;;;;;;5030786;28;19925;-75
2022/05/23 02:07:08;;;;;;;;;;;14.40;99.90;;;;;;5030792;28;19925;-75
2022/05/23 02:09:34;;;;;;;;;;;14.40;99.90;;;;;;5031053;28;20015;-75
2022/05/23 02:12:00;;;;;;;;;;;14.30;99.90;;;;;;5028767;28;19968;-75
2022/05/23 02:14:26;;;;;;;;;;;14.30;99.90;;;;;;5030093;28;19968;-76
2022/05/23 02:16:52;;;;;;;;;;;14.30;99.90;;;;;;5034667;28;19932;-75
2022/05/23 02:19:17;;;;;;;;;;;14.20;99.90;;;;;;5051092;28;19925;-75
2022/05/23 02:21:43;;;;;;;;;;;14.20;99.90;;;;;;5034144;28;19925;-75
2022/05/23 02:24:08;;;;;;;;;;;14.20;99.90;;;;;;5051049;28;19948;-75
2022/05/23 02:26:34;;;;;;;;;;;14.20;99.90;;;;;;5033661;28;19926;-75
2022/05/23 02:29:00;;;;;;;;;;;14.10;99.90;;;;;;5034992;28;20002;-75
2022/05/23 02:31:26;;;;;;;;;;;14.10;99.90;;;;;;5034894;28;19932;-75
2022/05/23 02:33:52;;;;;;;;;;;14.00;99.90;;;;;;5034289;28;19950;-75
2022/05/23 02:36:17;;;;;;;;;;;14.10;99.90;;;;;;5035751;28;19928;-75
2022/05/23 02:38:43;;;;;;;;;;;14.10;99.90;;;;;;5034441;28;19925;-75
2022/05/23 02:41:08;;;;;;;;;;;14.00;99.90;;;;;;5050080;28;19925;-75
2022/05/23 02:43:34;;;;;;;;;;;14.00;99.90;;;;;;5050778;28;19976;-75
2022/05/23 02:45:59;;;;;;;;;;;14.00;99.90;;;;;;5035763;28;19932;-74
2022/05/23 02:48:24;;;;;;;;;;;13.90;99.90;;;;;;5032782;28;19925;-75
2022/05/23 02:50:50;;;;;;;;;;;13.90;99.90;;;;;;5035489;28;19999;-75
2022/05/23 02:53:15;;;;;;;;;;;13.80;99.90;;;;;;5035412;28;19933;-75
2022/05/23 02:55:41;;;;;;;;;;;13.80;99.90;;;;;;5034859;28;20431;-75
2022/05/23 02:58:07;;;;;;;;;;;13.80;99.90;;;;;;5035312;28;19921;-75
2022/05/23 03:00:33;;;;;;;;;;;13.80;99.90;;;;;;5035532;28;19932;-74
2022/05/23 03:03:01;;;;;;;;;;;13.70;99.90;;;;;;5034270;28;19929;-75
2022/05/23 03:05:28;;;;;;;;;;;13.70;99.90;;;;;;5033740;28;19965;-75
2022/05/23 03:07:54;;;;;;;;;;;13.60;99.90;;;;;;5034885;28;19925;-75
2022/05/23 03:10:19;;;;;;;;;;;13.50;99.90;;;;;;5032773;28;20273;-75
2022/05/23 03:12:45;;;;;;;;;;;13.50;99.90;;;;;;5033149;28;19925;-75
2022/05/23 03:15:11;;;;;;;;;;;13.40;99.90;;;;;;5050293;28;19932;-75
2022/05/23 03:17:37;;;;;;;;;;;13.40;99.90;;;;;;5033598;28;19932;-75
2022/05/23 03:20:03;;;;;;;;;;;13.40;99.90;;;;;;5022375;28;19925;-75
2022/05/23 03:27:57;;;;;;;;;;;13.30;99.90;;;;;;5013641;28;19926;-75
2022/05/23 03:30:22;;;;;;;;;;;13.30;99.90;;;;;;5012848;28;19983;-75
2022/05/23 03:32:48;;;;;;;;;;;13.30;99.90;;;;;;5030251;28;20293;-75
2022/05/23 03:35:13;;;;;;;;;;;13.30;99.90;;;;;;5013120;28;19926;-75
2022/05/23 03:37:39;;;;;;;;;;;13.30;99.90;;;;;;5013818;28;19995;-75
2022/05/23 03:40:05;;;;;;;;;;;13.30;99.90;;;;;;5014769;28;19926;-75
2022/05/23 03:42:31;;;;;;;;;;;13.30;99.90;;;;;;5013207;28;19932;-74
2022/05/23 03:44:57;;;;;;;;;;;13.20;99.90;;;;;;5012809;28;19925;-75
2022/05/23 03:47:22;;;;;;;;;;;13.20;99.90;;;;;;5013343;28;20071;-75
2022/05/23 03:49:48;;;;;;;;;;;13.20;99.90;;;;;;5013518;28;20020;-75
2022/05/23 03:52:14;;;;;;;;;;;13.20;99.90;;;;;;5025587;28;20284;-75
2022/05/23 03:54:40;;;;;;;;;;;13.20;99.90;;;;;;5034099;28;20365;-74
2022/05/23 03:57:05;;;;;;;;;;;13.10;99.90;;;;;;5026783;28;20013;-74
2022/05/23 03:59:31;;;;;;;;;;;13.30;99.90;;;;;;5018810;28;20387;-74
2022/05/23 04:01:57;;;;;;;;;;;13.10;99.90;;;;;;5024980;28;20366;-75
2022/05/23 04:04:24;;;;;;;;;;;13.20;99.90;;;;;;5033432;28;19925;-75
2022/05/23 04:06:49;;;;;;;;;;;13.10;99.90;;;;;;5018515;28;19983;-75
2022/05/23 04:09:15;;;;;;;;;;;13.10;99.90;;;;;;5012712;28;20602;-78
2022/05/23 04:11:40;;;;;;;;;;;13.10;99.90;;;;;;5015538;28;19925;-76
2022/05/23 04:14:06;;;;;;;;;;;13.10;99.90;;;;;;5011563;28;20032;-74
2022/05/23 04:16:31;;;;;;;;;;;13.10;99.90;;;;;;5014568;28;19932;-71
2022/05/23 04:18:57;;;;;;;;;;;13.10;99.90;;;;;;5015777;28;19925;-74
2022/05/23 04:21:23;;;;;;;;;;;13.10;99.90;;;;;;5011771;28;19972;-73
2022/05/23 04:23:48;;;;;;;;;;;13.10;99.90;;;;;;5012714;28;19975;-74
2022/05/23 04:26:14;;;;;;;;;;;13.10;99.90;;;;;;5013795;28;19972;-74
2022/05/23 04:28:39;;;;;;;;;;;13.20;99.90;;;;;;5011990;28;20385;-75
2022/05/23 04:31:06;;;;;;;;;;;13.20;99.90;;;;;;5014539;28;19933;-74
2022/05/23 04:36:18;;;;;;;;;;;13.20;99.90;;;;;;5027422;28;19929;-71
2022/05/23 04:38:43;;;;;;;;;;;12.50;99.90;;;;;;5022595;28;20347;-74
2022/05/23 04:41:09;;;;;;;;;;;13.20;99.90;;;;;;5030809;28;20016;-71
2022/05/23 04:43:35;;;;;;;;;;;13.20;99.90;;;;;;5020599;28;19932;-76
2022/05/23 04:46:01;;;;;;;;;;;13.30;99.90;;;;;;5011966;28;19937;-86
2022/05/23 04:51:10;;;;;;;;;;;14.30;99.90;;;;;;5011966;28;19925;-76
2022/05/23 04:53:36;;;;;;;;;;;13.30;99.90;;;;;;5013296;28;19984;-77
2022/05/23 04:56:02;;;;;;;;;;;13.40;99.90;;;;;;5012695;28;19928;-73
2022/05/23 04:58:31;;;;;;;;;;;13.40;99.90;;;;;;5011934;28;19930;-71
2022/05/23 05:00:58;;;;;;;;;;;13.50;99.90;;;;;;5011199;28;20258;-71
2022/05/23 05:03:23;;;;;;;;;;;13.60;99.90;;;;;;5010451;28;20296;-71
2022/05/23 05:05:49;;;;;;;;;;;13.60;99.90;;;;;;5011535;28;20031;-75
2022/05/23 05:08:14;;;;;;;;;;;13.70;99.90;;;;;;5011253;28;19926;-71
2022/05/23 05:10:40;;;;;;;;;;;13.70;99.90;;;;;;5012053;28;19926;-74
2022/05/23 05:13:05;;;;;;;;;;;13.70;99.90;;;;;;5012683;28;19937;-74
2022/05/23 05:15:31;;;;;;;;;;;13.80;99.90;;;;;;5012831;28;19929;-70
2022/05/23 05:17:56;;;;;;;;;;;13.90;99.90;;;;;;5012443;28;19932;-70
2022/05/23 05:20:23;;;;;;;;;;;13.90;99.90;;;;;;5012763;28;20405;-74
2022/05/23 05:22:50;;;;;;;;;;;13.90;99.90;;;;;;5011606;28;19932;-71
2022/05/23 05:25:17;;;;;;;;;;;13.90;99.90;;;;;;5011528;28;19926;-73
2022/05/23 05:27:42;;;;;;;;;;;14.00;99.90;;;;;;5011241;28;19925;-74
2022/05/23 05:30:09;;;;;;;;;;;14.00;99.90;;;;;;5010875;28;19936;-73
2022/05/23 05:32:52;;;;;;;;;;;14.00;99.90;;;;;;5010961;28;19926;-77
2022/05/23 05:35:21;;;;;;;;;;;14.00;99.90;;;;;;5009428;28;19980;-77
2022/05/23 05:37:50;;;;;;;;;;;14.10;99.90;;;;;;5010426;28;19925;-77
2022/05/23 05:40:18;;;;;;;;;;;14.10;99.90;;;;;;5010935;28;20019;-77
2022/05/23 05:42:47;;;;;;;;;;;14.20;99.90;;;;;;5012323;28;19926;-76
2022/05/23 05:45:14;;;;;;;;;;;14.20;99.90;;;;;;5011515;28;19979;-77
2022/05/23 05:47:41;;;;;;;;;;;14.20;99.90;;;;;;5012546;28;19968;-77
2022/05/23 05:50:09;;;;;;;;;;;14.20;99.90;;;;;;5010548;28;19925;-77
2022/05/23 05:52:35;;;;;;;;;;;14.30;99.90;;;;;;5009971;28;19925;-77
2022/05/23 05:55:03;;;;;;;;;;;14.30;99.90;;;;;;5010647;28;20020;-76
2022/05/23 05:57:28;;;;;;;;;;;14.30;99.90;;;;;;5012345;28;19929;-77
2022/05/23 05:59:54;;;;;;;;;;;14.40;99.90;;;;;;5010212;28;20012;-78
2022/05/23 06:02:19;;;;;;;;;;;14.50;99.90;;;;;;5010673;28;20023;-78
2022/05/23 06:04:45;;;;;;;;;;;14.70;99.90;;;;;;5010574;28;20344;-78
2022/05/23 06:12:47;;;;;;;;;;;15.00;99.90;;;;;;5028163;28;20295;-78
2022/05/23 06:15:12;;;;;;;;;;;15.10;99.90;;;;;;5030667;28;19963;-78
2022/05/23 06:17:44;;;;;;;;;;;15.20;99.90;;;;;;5031697;28;19968;-78
2022/05/23 06:20:10;;;;;;;;;;;15.30;99.90;;;;;;5031262;28;19925;-77
2022/05/23 06:22:36;;;;;;;;;;;15.40;99.90;;;;;;5032198;28;19987;-78
2022/05/23 06:25:02;;;;;;;;;;;15.60;99.90;;;;;;5016482;28;19969;-78
2022/05/23 06:27:28;;;;;;;;;;;15.70;99.90;;;;;;5010072;28;20522;-78
2022/05/23 06:29:53;;;;;;;;;;;15.90;99.90;;;;;;5012419;28;20285;-78
2022/05/23 06:32:19;;;;;;;;;;;16.00;99.90;;;;;;5013390;28;19933;-77
2022/05/23 06:34:44;;;;;;;;;;;16.10;99.90;;;;;;5030096;28;19936;-78
2022/05/23 06:37:10;;;;;;;;;;;16.30;99.90;;;;;;5030196;28;20373;-78
2022/05/23 06:39:35;;;;;;;;;;;16.50;99.90;;;;;;5030448;28;19968;-78
2022/05/23 06:42:01;;;;;;;;;;;16.60;99.90;;;;;;5015430;28;20301;-78
2022/05/23 06:44:26;;;;;;;;;;;16.70;99.90;;;;;;5011578;28;19979;-77
2022/05/23 06:46:52;;;;;;;;;;;16.90;99.90;;;;;;5011787;28;19976;-77
2022/05/23 06:49:20;;;;;;;;;;;17.00;99.90;;;;;;5010174;28;20397;-77
2022/05/23 06:51:49;;;;;;;;;;;17.10;99.90;;;;;;5011090;28;19941;-77
2022/05/23 06:54:15;;;;;;;;;;;17.40;99.90;;;;;;5009890;28;19977;-76
2022/05/23 06:56:42;;;;;;;;;;;17.30;99.90;;;;;;5021678;28;19925;-77
2022/05/23 06:59:09;;;;;;;;;;;17.40;99.90;;;;;;5030039;28;19932;-77
2022/05/23 07:01:35;;;;;;;;;;;17.50;99.90;;;;;;5031177;28;19925;-77
2022/05/23 07:04:01;;;;;;;;;;;17.60;99.90;;;;;;5035090;28;19932;-77
2022/05/23 07:14:39;;;;;;;;;;;18.40;99.90;;;;;;5015159;28;20393;-77
2022/05/23 07:17:05;;;;;;;;;;;18.60;99.90;;;;;;5029274;28;19984;-77
2022/05/23 07:19:31;;;;;;;;;;;18.80;99.90;;;;;;5028960;28;20020;-77
2022/05/23 07:22:00;;;;;;;;;;;19.00;99.90;;;;;;5033690;28;19921;-77
2022/05/23 07:24:26;;;;;;;;;;;19.20;99.90;;;;;;5032783;28;20282;-77
2022/05/23 07:26:54;;;;;;;;;;;19.10;99.90;;;;;;5035159;28;19933;-78
2022/05/23 07:29:22;;;;;;;;;;;19.20;99.90;;;;;;5032708;28;20366;-77
2022/05/23 07:31:51;;;;;;;;;;;19.50;99.90;;;;;;5033779;28;19925;-77
2022/05/23 07:34:17;;;;;;;;;;;19.50;99.90;;;;;;5022922;28;19929;-77
2022/05/23 07:36:44;;;;;;;;;;;19.50;99.90;;;;;;5013097;28;20277;-78
2022/05/23 07:39:12;;;;;;;;;;;19.70;99.70;;;;;;5013077;28;19926;-77
2022/05/23 07:41:39;;;;;;;;;;;19.70;99.80;;;;;;5013506;28;19926;-77
2022/05/23 07:44:06;;;;;;;;;;;19.90;99.60;;;;;;5013616;28;20341;-78
2022/05/23 07:46:32;;;;;;;;;;;20.30;99.60;;;;;;5013457;28;20267;-77
2022/05/23 07:48:58;;;;;;;;;;;20.70;98.60;;;;;;5026760;28;19931;-78
2022/05/23 07:51:24;;;;;;;;;;;21.10;98.90;;;;;;5032383;28;20365;-77
2022/05/23 08:02:05;;;;;;;;;;;22.40;96.90;;;;;;5013489;28;19926;-77
2022/05/23 08:04:30;;;;;;;;;;;22.90;96.80;;;;;;5025818;28;20395;-77
2022/05/23 08:06:56;;;;;;;;;;;23.40;95.80;;;;;;5034554;28;19936;-77
2022/05/23 08:09:22;;;;;;;;;;;23.70;95.70;;;;;;5034207;28;19929;-77
2022/05/23 08:11:49;;;;;;;;;;;24.20;95.00;;;;;;5031817;28;19941;-78
2022/05/23 08:14:14;;;;;;;;;;;24.50;94.40;;;;;;5030013;28;20335;-77
2022/05/23 08:16:40;;;;;;;;;;;24.90;94.10;;;;;;5033638;28;19929;-77
2022/05/23 08:19:06;;;;;;;;;;;25.00;93.70;;;;;;5031629;28;19936;-77
2022/05/23 08:21:32;;;;;;;;;;;25.00;93.50;;;;;;5034036;28;19921;-77
2022/05/23 08:23:58;;;;;;;;;;;25.00;93.60;;;;;;5031048;28;19956;-78
2022/05/23 08:26:25;;;;;;;;;;;25.10;93.40;;;;;;5033357;28;20335;-77
2022/05/23 08:28:51;;;;;;;;;;;25.50;93.20;;;;;;5033552;28;20010;-78
2022/05/23 08:31:16;;;;;;;;;;;25.90;93.50;;;;;;5033329;28;20380;-78
2022/05/23 08:33:42;;;;;;;;;;;26.00;92.80;;;;;;5032874;28;19925;-78
2022/05/23 08:36:07;;;;;;;;;;;26.00;92.60;;;;;;5033344;28;20369;-78
2022/05/23 08:38:36;;;;;;;;;;;25.90;93.60;;;;;;5031779;28;20416;-78
2022/05/23 08:41:14;;;;;;;;;;;26.00;93.40;;;;;;5011794;28;19925;-78
2022/05/23 08:43:40;;;;;;;;;;;25.60;92.10;;;;;;5014470;28;19932;-78
2022/05/23 08:46:06;;;;;;;;;;;25.20;93.10;;;;;;5016724;28;20004;-77
2022/05/23 08:48:54;;;;;;;;;;;25.00;93.80;;;;;;5012769;28;19929;-77
2022/05/23 08:51:28;;;;;;;;;;;24.90;93.80;;;;;;5012173;28;19936;-78
2022/05/23 08:54:14;;;;;;;;;;;24.80;93.60;;;;;;5013778;28;19929;-78
2022/05/23 08:56:46;;;;;;;;;;;24.90;93.50;;;;;;5012089;28;19926;-78
2022/05/23 08:59:18;;;;;;;;;;;25.10;93.70;;;;;;5011762;28;19926;-78
2022/05/23 09:01:48;;;;;;;;;;;25.10;93.20;;;;;;5012807;28;19973;-77
2022/05/23 09:04:17;;;;;;;;;;;25.10;93.20;;;;;;5032897;28;19925;-78
2022/05/23 09:06:47;;;;;;;;;;;24.90;93.40;;;;;;5031709;28;20296;-78
2022/05/23 09:09:15;;;;;;;;;;;25.00;93.70;;;;;;5042146;28;20385;-78
2022/05/23 09:11:42;;;;;;;;;;;25.20;94.00;;;;;;5013381;28;19925;-78
2022/05/23 09:14:09;;;;;;;;;;;25.90;93.50;;;;;;5011571;28;20063;-78
2022/05/23 09:16:40;;;;;;;;;;;26.20;93.20;;;;;;5010933;28;20016;-78
2022/05/23 09:19:13;;;;;;;;;;;26.30;93.10;;;;;;5012616;28;19933;-78
2022/05/23 09:24:23;;;;;;;;;;;26.30;92.50;;;;;;5030776;28;19929;-78
2022/05/23 09:26:48;;;;;;;;;;;26.60;92.50;;;;;;5032896;28;20389;-78
2022/05/23 09:29:14;;;;;;;;;;;27.10;92.30;;;;;;5029773;28;20308;-78
2022/05/23 09:31:43;;;;;;;;;;;26.90;92.20;;;;;;5011775;28;19951;-78
2022/05/23 09:34:27;;;;;;;;;;;26.70;92.20;;;;;;5012689;28;19932;-78
2022/05/23 09:36:53;;;;;;;;;;;26.50;92.10;;;;;;5012021;28;20275;-76
2022/05/23 09:39:26;;;;;;;;;;;26.40;91.80;;;;;;5010922;28;19936;-77
2022/05/23 09:47:44;;;;;;;;;;;26.30;92.90;;;;;;5012738;28;19925;-77
2022/05/23 09:50:10;;;;;;;;;;;26.40;92.30;;;;;;5011869;28;20027;-77
2022/05/23 09:52:39;;;;;;;;;;;26.30;93.20;;;;;;5011533;28;19926;-76
2022/05/23 09:55:06;;;;;;;;;;;26.40;92.60;;;;;;5011581;28;19971;-77
2022/05/23 09:57:39;;;;;;;;;;;26.20;92.80;;;;;;5010602;28;20280;-77
2022/05/23 10:00:23;;;;;;;;;;;26.50;92.60;;;;;;5012432;28;20293;-77
2022/05/23 10:02:51;;;;;;;;;;;26.40;92.40;;;;;;5022429;28;19933;-77
2022/05/23 10:05:32;;;;;;;;;;;26.40;92.30;;;;;;5030070;28;19929;-77
2022/05/23 10:08:00;;;;;;;;;;;26.10;92.60;;;;;;5030791;28;19976;-77
2022/05/23 10:10:30;;;;;;;;;;;25.80;93.40;;;;;;5031137;28;20380;-77
2022/05/23 10:13:14;;;;;;;;;;;26.20;93.40;;;;;;5031572;28;19947;-78
2022/05/23 10:15:43;;;;;;;;;;;26.40;93.50;;;;;;5030298;28;19948;-77
2022/05/23 10:18:10;;;;;;;;;;;26.60;93.00;;;;;;5029301;28;19931;-77
2022/05/23 10:20:40;;;;;;;;;;;26.70;93.50;;;;;;5030984;28;20347;-77
2022/05/23 10:23:07;;;;;;;;;;;26.70;92.90;;;;;;5046876;28;19925;-77
2022/05/23 10:25:42;;;;;;;;;;;27.00;92.90;;;;;;5030310;28;19925;-77
2022/05/23 10:28:11;;;;;;;;;;;27.20;92.60;;;;;;5028942;28;19925;-77
2022/05/23 10:30:37;;;;;;;;;;;27.20;92.00;;;;;;5030781;28;19929;-77
2022/05/23 10:33:08;;;;;;;;;;;27.40;92.20;;;;;;5013759;28;19926;-77
2022/05/23 10:35:40;;;;;;;;;;;27.20;91.40;;;;;;5012677;28;19925;-77
2022/05/23 10:44:02;;;;;;;;;;;28.20;91.60;;;;;;5014731;28;19926;-77
2022/05/23 10:46:28;;;;;;;;;;;28.30;91.10;;;;;;5014841;28;20007;-77
2022/05/23 10:49:15;;;;;;;;;;;28.40;90.90;;;;;;5015850;28;20381;-77
2022/05/23 10:51:44;;;;;;;;;;;28.40;90.90;;;;;;5014766;28;19929;-77
2022/05/23 10:54:27;;;;;;;;;;;28.10;90.90;;;;;;5013820;28;19933;-77
2022/05/23 10:56:59;;;;;;;;;;;27.60;90.60;;;;;;5019436;28;20020;-76
2022/05/23 10:59:42;;;;;;;;;;;27.10;90.60;;;;;;5014375;28;19933;-76
2022/05/23 11:02:08;;;;;;;;;;;26.60;91.10;;;;;;5019903;28;20403;-77
2022/05/23 11:04:38;;;;;;;;;;;26.30;91.50;;;;;;5033949;28;19932;-77
2022/05/23 11:07:13;;;;;;;;;;;26.20;92.00;;;;;;5035404;28;19925;-77
2022/05/23 11:09:57;;;;;;;;;;;26.20;92.20;;;;;;5033836;28;19936;-77
2022/05/23 11:12:41;;;;;;;;;;;26.20;92.20;;;;;;5033688;28;19925;-77
2022/05/23 11:15:29;;;;;;;;;;;26.20;92.20;;;;;;5034137;28;19929;-77
2022/05/23 11:18:13;;;;;;;;;;;26.00;92.60;;;;;;5031885;28;19952;-77
2022/05/23 11:20:40;;;;;;;;;;;26.10;92.80;;;;;;5013294;28;19965;-76
2022/05/23 11:23:24;;;;;;;;;;;26.10;92.00;;;;;;5013008;28;19930;-76
2022/05/23 11:25:52;;;;;;;;;;;26.40;92.60;;;;;;5013587;28;20325;-76
2022/05/23 11:34:21;;;;;;;;;;;26.90;91.70;;;;;;5013178;28;19925;-76
2022/05/23 11:36:57;;;;;;;;;;;26.70;91.80;;;;;;5013899;28;20439;-76
2022/05/23 11:39:41;;;;;;;;;;;26.50;91.60;;;;;;5014509;28;19926;-76
2022/05/23 11:42:12;;;;;;;;;;;26.30;91.50;;;;;;5013122;28;19936;-76
2022/05/23 11:44:44;;;;;;;;;;;26.00;91.90;;;;;;5012595;28;19925;-75
2022/05/23 11:47:23;;;;;;;;;;;26.00;92.60;;;;;;5013761;28;19980;-76
2022/05/23 11:50:01;;;;;;;;;;;26.10;92.10;;;;;;5012330;28;20325;-76
2022/05/23 11:52:32;;;;;;;;;;;26.00;91.80;;;;;;5014619;28;19933;-77
2022/05/23 11:54:58;;;;;;;;;;;25.90;92.00;;;;;;5014789;28;19925;-76
2022/05/23 11:57:35;;;;;;;;;;;25.80;92.50;;;;;;5012196;28;20024;-77
2022/05/23 12:00:04;;;;;;;;;;;25.70;92.80;;;;;;5014270;28;20076;-77
2022/05/23 12:02:30;;;;;;;;;;;25.70;92.20;;;;;;5021796;28;19925;-76
2022/05/23 12:04:55;;;;;;;;;;;25.60;92.20;;;;;;5032267;28;19948;-76
2022/05/23 12:07:31;;;;;;;;;;;25.50;91.00;;;;;;5032582;28;19947;-77
2022/05/23 12:10:15;;;;;;;;;;;25.50;91.80;;;;;;5033942;28;19926;-76
2022/05/23 12:12:47;;;;;;;;;;;25.60;91.40;;;;;;5033338;28;20026;-76
2022/05/23 12:15:32;;;;;;;;;;;25.80;91.70;;;;;;5033835;28;19925;-77
2022/05/23 12:17:58;;;;;;;;;;;26.20;91.50;;;;;;5028633;28;20388;-76
2022/05/23 12:20:25;;;;;;;;;;;26.30;91.00;;;;;;5032454;28;20400;-77
2022/05/23 12:23:11;;;;;;;;;;;26.20;91.30;;;;;;5032607;28;19925;-77
2022/05/23 12:25:36;;;;;;;;;;;26.10;91.20;;;;;;5019960;28;20118;-77
2022/05/23 12:28:08;;;;;;;;;;;25.80;92.00;;;;;;5012650;28;20003;-78
2022/05/23 12:30:36;;;;;;;;;;;25.80;91.60;;;;;;5011407;28;20373;-77
2022/05/23 12:33:01;;;;;;;;;;;25.80;91.20;;;;;;5011936;28;19930;-77
2022/05/23 12:35:39;;;;;;;;;;;25.60;91.60;;;;;;5012388;28;20020;-77
2022/05/23 12:38:23;;;;;;;;;;;25.40;92.10;;;;;;5012591;28;19967;-78
2022/05/23 12:41:07;;;;;;;;;;;25.30;92.90;;;;;;5011826;28;19925;-77
2022/05/23 12:43:32;;;;;;;;;;;25.20;92.40;;;;;;5011456;28;19933;-77
2022/05/23 12:46:09;;;;;;;;;;;25.00;92.10;;;;;;5010936;28;19929;-78
2022/05/23 12:48:44;;;;;;;;;;;25.00;91.90;;;;;;5011833;28;20384;-78
2022/05/23 12:51:12;;;;;;;;;;;25.00;92.90;;;;;;5011604;28;19933;-77
2022/05/23 12:53:57;;;;;;;;;;;25.00;92.60;;;;;;5012264;28;20324;-78
2022/05/23 12:56:42;;;;;;;;;;;24.80;92.30;;;;;;5030356;28;20429;-76
2022/05/23 12:59:29;;;;;;;;;;;24.70;92.50;;;;;;5047154;28;19940;-77
2022/05/23 13:01:59;;;;;;;;;;;24.80;92.70;;;;;;5032390;28;19969;-77
2022/05/23 13:04:45;;;;;;;;;;;24.70;92.80;;;;;;5031323;28;19955;-77
2022/05/23 13:07:18;;;;;;;;;;;24.60;93.20;;;;;;5030842;28;19929;-77
2022/05/23 13:09:46;;;;;;;;;;;24.80;93.30;;;;;;5029701;28;19925;-76
2022/05/23 13:12:14;;;;;;;;;;;24.50;92.70;;;;;;5032351;28;20475;-76
2022/05/23 13:15:05;;;;;;;;;;;24.50;93.60;;;;;;5030326;28;19925;-76
2022/05/23 13:17:34;;;;;;;;;;;24.50;93.60;;;;;;5028044;28;19925;-76
2022/05/23 13:22:43;;;;;;;;;;;24.20;97.00;;;;;;5031742;28;19925;-79
2022/05/23 13:25:10;;;;;;;;;;;24.00;98.70;;;;;;5025626;28;19948;-81
2022/05/23 13:27:50;;;;;;;;;;;24.00;98.70;;;;;;5012551;28;19929;-77
2022/05/23 13:30:33;;;;;;;;;;;23.80;98.10;;;;;;5012454;28;19925;-81
2022/05/23 13:33:00;;;;;;;;;;;23.70;98.70;;;;;;5012749;28;19948;-80
2022/05/23 13:35:26;;;;;;;;;;;23.60;99.30;;;;;;5011501;28;19929;-81
2022/05/23 13:37:51;;;;;;;;;;;23.50;99.00;;;;;;5011786;28;20020;-80
2022/05/23 13:40:19;;;;;;;;;;;23.30;98.90;;;;;;5012231;28;19929;-74
2022/05/23 13:42:45;;;;;;;;;;;23.20;99.80;;;;;;5011459;28;20024;-81
2022/05/23 13:45:16;;;;;;;;;;;23.10;99.50;;;;;;5014100;28;19933;-77
2022/05/23 13:47:45;;;;;;;;;;;23.00;99.60;;;;;;5031939;28;19972;-76
2022/05/23 13:50:18;;;;;;;;;;;22.90;99.90;;;;;;5031473;28;19972;-75
2022/05/23 13:52:49;;;;;;;;;;;22.90;99.90;;;;;;5030796;28;20002;-76
2022/05/23 13:55:18;;;;;;;;;;;22.80;99.90;;;;;;5030706;28;20412;-75
2022/05/23 13:57:47;;;;;;;;;;;22.90;99.90;;;;;;5030271;28;19925;-77
2022/05/23 14:00:15;;;;;;;;;;;23.00;99.90;;;;;;5029869;28;19958;-75
2022/05/23 14:02:58;;;;;;;;;;;22.90;99.90;;;;;;5020904;28;19948;-72
2022/05/23 14:05:27;;;;;;;;;;;22.80;99.90;;;;;;5031229;28;19971;-71
2022/05/23 14:07:53;;;;;;;;;;;22.80;99.90;;;;;;5031355;28;19925;-73
2022/05/23 14:10:22;;;;;;;;;;;22.70;99.90;;;;;;5025569;28;19936;-73
2022/05/23 14:12:48;;;;;;;;;;;22.60;99.90;;;;;;5017590;28;20407;-74
2022/05/23 14:15:19;;;;;;;;;;;22.50;99.90;;;;;;5015788;28;19932;-73
2022/05/23 14:17:48;;;;;;;;;;;22.30;99.90;;;;;;5023120;28;19973;-73
2022/05/23 14:20:20;;;;;;;;;;;22.30;99.90;;;;;;5013678;28;19929;-72
2022/05/23 14:23:18;;;;;;;;;;;22.00;99.90;;;;;;5013542;28;19933;-71
2022/05/23 14:25:45;;;;;;;;;;;22.00;99.90;;;;;;5002500;28;19926;-69
2022/05/23 14:28:21;;;;;;;;;;;21.80;99.90;;;;;;5026856;28;19933;-72
2022/05/23 14:30:48;;;;;;;;;;;21.80;99.90;;;;;;5025244;28;19930;-74
2022/05/23 14:33:19;;;;;;;;;;;21.60;99.90;;;;;;5031493;28;19925;-73
2022/05/23 14:35:51;;;;;;;;;;;21.60;99.90;;;;;;5035218;28;20387;-73
2022/05/23 14:38:30;;;;;;;;;;;21.50;99.90;;;;;;5032688;28;19932;-74
2022/05/23 14:40:57;;;;;;;;;;;21.30;99.90;;;;;;5032470;28;20022;-73
2022/05/23 14:43:27;;;;;;;;;;;21.20;99.90;;;;;;5013755;28;19983;-72
2022/05/23 14:45:58;;;;;;;;;;;21.10;99.90;;;;;;5015064;28;19926;-73
2022/05/23 14:48:28;;;;;;;;;;;20.90;99.90;;;;;;5015148;28;19936;-72
2022/05/23 14:51:15;;;;;;;;;;;20.80;99.90;;;;;;5018986;28;20016;-69
2022/05/23 14:56:27;;;;;;;;;;;20.70;99.90;;;;;;5035108;28;20004;-71
2022/05/23 15:01:41;;;;;;;;;;;20.40;99.90;;;;;;5022962;28;19973;-73
2022/05/23 15:04:11;;;;;;;;;;;20.30;99.90;;;;;;5013366;28;19973;-73
2022/05/23 15:06:37;;;;;;;;;;;20.20;99.90;;;;;;5033176;28;19928;-76
2022/05/23 15:09:02;;;;;;;;;;;20.20;99.90;;;;;;5032957;28;20293;-75
2022/05/23 15:11:32;;;;;;;;;;;20.10;99.90;;;;;;5033371;28;19933;-76
2022/05/23 15:13:59;;;;;;;;;;;20.10;99.90;;;;;;5030419;28;19928;-74
2022/05/23 15:16:26;;;;;;;;;;;20.00;99.90;;;;;;5026463;28;19925;-75
2022/05/23 15:18:52;;;;;;;;;;;20.00;99.90;;;;;;5022125;28;19932;-75
2022/05/23 15:21:17;;;;;;;;;;;20.00;99.90;;;;;;5033531;28;20005;-75
2022/05/23 15:23:43;;;;;;;;;;;19.90;99.90;;;;;;5034353;28;19952;-76
2022/05/23 15:26:11;;;;;;;;;;;19.80;99.90;;;;;;5034504;28;19925;-76
2022/05/23 15:28:37;;;;;;;;;;;19.70;99.90;;;;;;5031938;28;19925;-76
2022/05/23 15:31:04;;;;;;;;;;;19.60;99.90;;;;;;5032787;28;19925;-76
2022/05/23 15:33:30;;;;;;;;;;;19.50;99.90;;;;;;5031777;28;20365;-75
2022/05/23 15:35:55;;;;;;;;;;;19.40;99.90;;;;;;5031554;28;19933;-76